createdAt,value
2022-09-01T14:11:58.064Z,21.35
2022-09-01T14:14:25.137Z,21.42
2022-09-01T14:16:52.080Z,21.51
2022-09-01T14:19:19.187Z,21.61
2022-09-01T14:21:47.439Z,21.73
2022-09-01T14:24:15.125Z,21.85
2022-09-01T14:26:42.230Z,21.95
2022-09-01T14:29:09.669Z,22.05
2022-09-01T14:31:37.956Z,22.15
2022-09-01T14:34:05.349Z,22.22
2022-09-01T14:55:58.975Z,22.68
2022-09-01T14:58:26.933Z,22.76
2022-09-01T15:01:03.606Z,22.82
2022-09-01T15:03:34.793Z,22.86
2022-09-01T15:06:01.656Z,22.94
2022-09-01T15:08:28.523Z,22.90
2022-09-01T15:10:55.371Z,22.85
2022-09-01T15:13:22.391Z,22.80
2022-09-01T15:15:49.379Z,22.79
2022-09-01T15:18:16.352Z,22.80
2022-09-01T15:20:45.995Z,22.81
2022-09-01T15:23:20.823Z,22.83
2022-09-01T15:25:48.156Z,22.92
2022-09-01T15:28:15.267Z,22.91
2022-09-01T15:30:42.235Z,22.94
2022-09-01T15:33:15.374Z,22.90
2022-09-01T15:35:43.566Z,22.82
2022-09-01T15:38:10.611Z,22.74
2022-09-01T15:40:42.932Z,22.79
2022-09-01T15:43:09.947Z,22.75
2022-09-01T15:45:36.879Z,22.72
2022-09-01T15:48:03.808Z,22.71
2022-09-01T15:50:30.696Z,22.80
2022-09-01T15:53:02.120Z,22.83
2022-09-01T15:55:41.237Z,22.81
2022-09-01T15:58:09.054Z,22.89
2022-09-01T16:00:36.128Z,22.86
2022-09-01T16:03:05.773Z,22.87
2022-09-01T16:05:34.569Z,22.83
2022-09-01T16:08:01.764Z,22.79
2022-09-01T16:10:31.345Z,22.71
2022-09-01T16:13:01.676Z,22.71
2022-09-01T16:15:28.560Z,22.66
2022-09-01T16:18:20.016Z,22.67
2022-09-01T16:20:55.497Z,22.60
2022-09-01T16:23:24.267Z,22.60
2022-09-01T16:25:51.147Z,22.54
2022-09-01T16:28:29.151Z,22.53
2022-09-01T16:31:08.253Z,22.48
2022-09-01T16:36:15.545Z,22.47
2022-09-01T16:38:54.491Z,22.42
2022-09-01T16:41:44.137Z,22.46
2022-09-01T16:44:16.718Z,22.43
2022-09-01T16:47:42.139Z,22.40
2022-09-01T16:50:21.039Z,22.33
2022-09-01T16:53:05.811Z,22.28
2022-09-01T16:56:17.699Z,22.25
2022-09-01T16:58:59.704Z,22.19
2022-09-01T17:01:38.675Z,22.18
2022-09-01T17:04:29.168Z,22.16
2022-09-01T17:07:15.153Z,22.13
2022-09-01T17:09:46.542Z,22.08
2022-09-01T17:12:16.226Z,22.05
2022-09-01T17:14:47.693Z,21.99
2022-09-01T17:17:18.479Z,21.95
2022-09-01T17:19:50.263Z,21.96
2022-09-01T17:22:17.168Z,21.93
2022-09-01T17:24:46.266Z,22.01
2022-09-01T17:27:21.838Z,22.11
2022-09-01T17:29:52.055Z,22.16
2022-09-01T17:32:37.412Z,22.02
2022-09-01T17:35:15.313Z,21.93
2022-09-01T17:37:56.330Z,21.88
2022-09-01T17:40:41.277Z,21.94
2022-09-01T17:43:18.385Z,22.03
2022-09-01T17:45:51.534Z,22.11
2022-09-01T17:48:20.983Z,22.22
2022-09-01T17:51:01.039Z,22.29
2022-09-01T17:53:35.363Z,22.29
2022-09-01T17:56:09.789Z,22.32
2022-09-01T17:59:07.662Z,22.37
2022-09-01T18:01:41.313Z,22.39
2022-09-01T18:04:43.323Z,22.39
2022-09-01T18:07:27.345Z,22.43
2022-09-01T18:09:55.588Z,22.44
2022-09-01T18:12:27.592Z,22.45
2022-09-01T18:15:11.145Z,22.42
2022-09-01T18:18:06.308Z,22.45
2022-09-01T18:20:38.888Z,22.45
2022-09-01T18:23:07.613Z,22.45
2022-09-01T18:25:42.401Z,22.48
2022-09-01T18:28:09.748Z,22.50
2022-09-01T18:31:14.277Z,22.49
2022-09-01T18:33:44.449Z,22.51
2022-09-01T18:36:23.037Z,22.52
2022-09-01T18:38:51.673Z,22.54
2022-09-01T18:41:52.017Z,22.54
2022-09-01T18:44:27.537Z,22.52
2022-09-01T18:46:54.404Z,22.52
2022-09-01T18:49:49.340Z,22.50
2022-09-01T18:52:33.538Z,22.47
2022-09-01T18:55:12.876Z,22.46
2022-09-01T18:57:40.543Z,22.46
2022-09-01T19:00:18.173Z,22.46
2022-09-01T19:03:28.410Z,22.47
2022-09-01T19:06:28.343Z,22.48
2022-09-01T19:09:21.025Z,22.52
2022-09-01T19:12:14.189Z,22.55
2022-09-01T19:15:08.642Z,22.59
2022-09-01T19:17:50.610Z,22.60
2022-09-01T19:20:19.122Z,22.63
2022-09-01T19:23:01.401Z,22.64
2022-09-01T19:25:34.227Z,22.65
2022-09-01T19:28:11.010Z,22.65
2022-09-01T19:30:47.831Z,22.66
2022-09-01T19:33:17.219Z,22.67
2022-09-01T19:35:44.629Z,22.69
2022-09-01T19:38:13.583Z,22.68
2022-09-01T19:40:40.451Z,22.70
2022-09-01T19:43:10.612Z,22.70
2022-09-01T19:46:19.284Z,22.70
2022-09-01T19:49:13.451Z,22.70
2022-09-01T19:52:08.115Z,22.71
2022-09-01T19:54:53.671Z,22.72
2022-09-01T19:57:29.145Z,22.71
2022-09-01T20:00:11.170Z,22.72
2022-09-01T20:03:02.513Z,22.72
2022-09-01T20:05:32.242Z,22.70
2022-09-01T20:08:23.947Z,22.72
2022-09-01T20:11:01.593Z,22.72
2022-09-01T20:13:34.129Z,22.72
2022-09-01T20:16:01.025Z,22.72
2022-09-01T20:18:31.366Z,22.72
2022-09-01T20:21:04.581Z,22.72
2022-09-01T20:23:36.892Z,22.73
2022-09-01T20:26:06.761Z,22.72
2022-09-01T20:28:45.608Z,22.73
2022-09-01T20:31:26.252Z,22.73
2022-09-01T20:33:55.020Z,22.72
2022-09-01T20:36:50.978Z,22.72
2022-09-01T20:39:59.147Z,22.72
2022-09-01T20:42:44.053Z,22.71
2022-09-01T20:45:17.231Z,22.71
2022-09-01T20:47:53.442Z,22.71
2022-09-01T20:50:21.445Z,22.71
2022-09-01T20:52:57.018Z,22.71
2022-09-01T20:55:33.524Z,22.71
2022-09-01T20:58:06.051Z,22.71
2022-09-01T21:00:35.821Z,22.71
2022-09-01T21:03:21.079Z,22.71
2022-09-01T21:06:13.768Z,22.71
2022-09-01T21:08:46.375Z,22.70
2022-09-01T21:11:27.625Z,22.71
2022-09-01T21:14:04.074Z,22.70
2022-09-01T21:16:52.744Z,22.69
2022-09-01T21:19:51.935Z,22.69
2022-09-01T21:22:22.165Z,22.68
2022-09-01T21:24:49.540Z,22.68
2022-09-01T21:27:24.298Z,22.68
2022-09-01T21:29:51.103Z,22.68
2022-09-01T21:32:18.055Z,22.67
2022-09-01T21:34:45.558Z,22.68
2022-09-01T21:37:12.655Z,22.66
2022-09-01T21:39:39.964Z,22.67
2022-09-01T21:42:08.059Z,22.65
2022-09-01T21:44:34.989Z,22.66
2022-09-01T21:47:01.839Z,22.67
2022-09-01T21:49:28.783Z,22.66
2022-09-01T21:51:59.030Z,22.66
2022-09-01T21:54:25.904Z,22.65
2022-09-01T21:56:53.570Z,22.65
2022-09-01T21:59:20.600Z,22.65
2022-09-01T22:01:47.776Z,22.64
2022-09-01T22:04:15.179Z,22.64
2022-09-01T22:06:42.125Z,22.64
2022-09-01T22:09:20.764Z,22.63
2022-09-01T22:11:49.326Z,22.63
2022-09-01T22:14:16.198Z,22.63
2022-09-01T22:16:43.249Z,22.63
2022-09-01T22:19:10.158Z,22.64
2022-09-01T22:21:37.612Z,22.64
2022-09-01T22:24:05.499Z,22.63
2022-09-01T22:26:32.712Z,22.63
2022-09-01T22:29:00.446Z,22.61
2022-09-01T22:31:28.361Z,22.61
2022-09-01T22:33:55.410Z,22.60
2022-09-01T22:36:24.455Z,22.61
2022-09-01T22:38:51.347Z,22.61
2022-09-01T22:41:22.200Z,22.62
2022-09-01T22:43:49.133Z,22.61
2022-09-01T22:46:16.477Z,22.59
2022-09-01T22:48:46.605Z,22.61
2022-09-01T22:51:14.829Z,22.59
2022-09-01T22:53:42.515Z,22.59
2022-09-01T22:56:13.988Z,22.59
2022-09-01T22:58:41.148Z,22.59
2022-09-01T23:01:11.072Z,22.59
2022-09-01T23:03:38.591Z,22.59
2022-09-01T23:06:07.423Z,22.60
2022-09-01T23:08:34.333Z,22.57
2022-09-01T23:11:01.176Z,22.58
2022-09-01T23:13:28.521Z,22.57
2022-09-01T23:15:56.704Z,22.59
2022-09-01T23:18:24.299Z,22.58
2022-09-01T23:20:51.245Z,22.55
2022-09-01T23:23:18.314Z,22.57
2022-09-01T23:25:45.275Z,22.57
2022-09-01T23:28:17.039Z,22.56
2022-09-01T23:30:47.050Z,22.56
2022-09-01T23:33:14.268Z,22.56
2022-09-01T23:35:42.728Z,22.56
2022-09-01T23:38:10.890Z,22.55
2022-09-01T23:40:41.970Z,22.55
2022-09-01T23:43:09.054Z,22.55
2022-09-01T23:45:43.551Z,22.55
2022-09-01T23:48:12.968Z,22.54
2022-09-01T23:50:47.549Z,22.53
2022-09-01T23:53:14.440Z,22.52
2022-09-01T23:55:49.885Z,22.52
2022-09-01T23:58:17.120Z,22.52
